Time;durP1;ratioP1;P1;durP2;ratioP2;P2;SDS_P1;SDS_P2;PMS_P1;PMS_P2;Temp;Humidity;BMP_temperature;BMP_pressure;BME280_temperature;BME280_humidity;BME280_pressure;Samples;Min_cycle;Max_cycle;Signal;HPM_P1;HPM_P2
2023/04/12 00:00:41;;;;;;;0.57;0.57;;;;;;;;;;5070465;28;20244;-82
2023/04/12 00:03:09;;;;;;;0.70;0.70;;;;;;;;;;5066024;28;20195;-81
2023/04/12 00:05:35;;;;;;;0.70;0.70;;;;;;;;;;5070744;28;20205;-81
2023/04/12 00:08:05;;;;;;;0.60;0.60;;;;;;;;;;5071247;28;20208;-81
2023/04/12 00:10:31;;;;;;;0.50;0.50;;;;;;;;;;5068522;28;20182;-82
2023/04/12 00:12:57;;;;;;;0.57;0.57;;;;;;;;;;5058170;28;20187;-82
2023/04/12 00:15:23;;;;;;;0.60;0.60;;;;;;;;;;5059094;28;20171;-82
2023/04/12 00:17:49;;;;;;;0.60;0.60;;;;;;;;;;5059171;28;20209;-82
2023/04/12 00:20:15;;;;;;;0.60;0.60;;;;;;;;;;5059260;28;20180;-81
2023/04/12 00:22:41;;;;;;;0.60;0.60;;;;;;;;;;5058336;28;20194;-82
2023/04/12 00:25:08;;;;;;;0.60;0.60;;;;;;;;;;5058853;28;20179;-81
2023/04/12 00:27:34;;;;;;;0.60;0.60;;;;;;;;;;5059394;28;20732;-81
2023/04/12 00:30:00;;;;;;;0.60;0.60;;;;;;;;;;5059103;28;20171;-82
2023/04/12 00:32:26;;;;;;;0.60;0.60;;;;;;;;;;5059288;28;20641;-81
2023/04/12 00:34:52;;;;;;;0.70;0.70;;;;;;;;;;5058763;28;20195;-82
2023/04/12 00:37:18;;;;;;;0.53;0.53;;;;;;;;;;5058494;28;20179;-81
2023/04/12 00:39:44;;;;;;;0.50;0.50;;;;;;;;;;5059823;28;20191;-82
2023/04/12 00:42:10;;;;;;;0.60;0.60;;;;;;;;;;5058694;28;20789;-82
2023/04/12 00:44:36;;;;;;;0.50;0.50;;;;;;;;;;5058957;28;20199;-82
2023/04/12 00:47:04;;;;;;;0.57;0.57;;;;;;;;;;5059753;28;20222;-82
2023/04/12 00:49:30;;;;;;;0.60;0.60;;;;;;;;;;5061596;28;20799;-82
2023/04/12 00:52:02;;;;;;;0.60;0.60;;;;;;;;;;5064310;28;20175;-83
2023/04/12 00:54:29;;;;;;;0.60;0.60;;;;;;;;;;5063690;28;20199;-83
2023/04/12 00:56:56;;;;;;;0.60;0.60;;;;;;;;;;5064360;28;20266;-82
2023/04/12 00:59:22;;;;;;;0.60;0.60;;;;;;;;;;5063495;28;20217;-83
2023/04/12 01:01:48;;;;;;;0.60;0.60;;;;;;;;;;5063410;28;20183;-84
2023/04/12 01:04:15;;;;;;;0.60;0.60;;;;;;;;;;5063018;28;20219;-82
2023/04/12 01:07:04;;;;;;;0.60;0.60;;;;;;;;;;5064464;28;20282;-82
2023/04/12 01:09:30;;;;;;;0.67;0.67;;;;;;;;;;5065063;28;20179;-82
2023/04/12 01:12:15;;;;;;;0.60;0.60;;;;;;;;;;5064901;28;20262;-83
2023/04/12 01:14:41;;;;;;;0.67;0.67;;;;;;;;;;5064104;28;20190;-82
2023/04/12 01:17:12;;;;;;;0.67;0.67;;;;;;;;;;5063962;28;20202;-81
2023/04/12 01:19:52;;;;;;;0.63;0.63;;;;;;;;;;5064760;28;20183;-81
2023/04/12 01:22:18;;;;;;;0.60;0.60;;;;;;;;;;5064423;28;20187;-81
2023/04/12 01:25:00;;;;;;;0.53;0.53;;;;;;;;;;5064447;28;20214;-81
2023/04/12 01:27:34;;;;;;;0.63;0.63;;;;;;;;;;5065645;28;20207;-81
2023/04/12 01:30:01;;;;;;;0.60;0.60;;;;;;;;;;5065267;28;20430;-82
2023/04/12 01:32:27;;;;;;;0.57;0.57;;;;;;;;;;5065190;28;20183;-82
2023/04/12 01:34:54;;;;;;;0.60;0.60;;;;;;;;;;5065728;28;20205;-81
2023/04/12 01:37:21;;;;;;;0.50;0.50;;;;;;;;;;5065478;28;20175;-81
2023/04/12 01:39:48;;;;;;;0.60;0.60;;;;;;;;;;5065848;28;20179;-81
2023/04/12 01:42:18;;;;;;;0.70;0.70;;;;;;;;;;5068496;28;20183;-81
2023/04/12 01:44:44;;;;;;;0.60;0.60;;;;;;;;;;5071007;28;20187;-80
2023/04/12 01:47:12;;;;;;;0.57;0.57;;;;;;;;;;5078279;28;20222;-80
2023/04/12 01:49:43;;;;;;;0.70;0.70;;;;;;;;;;5078162;28;20178;-79
2023/04/12 01:52:11;;;;;;;0.57;0.57;;;;;;;;;;5077776;28;20167;-80
2023/04/12 01:54:38;;;;;;;0.50;0.50;;;;;;;;;;5077339;28;20183;-79
2023/04/12 01:57:07;;;;;;;0.50;0.50;;;;;;;;;;5072464;28;20262;-82
2023/04/12 01:59:39;;;;;;;0.70;0.70;;;;;;;;;;5060138;28;20181;-82
2023/04/12 02:02:05;;;;;;;0.60;0.60;;;;;;;;;;5061089;28;20171;-83
2023/04/12 02:04:32;;;;;;;0.50;0.50;;;;;;;;;;5059795;28;20199;-82
2023/04/12 02:06:58;;;;;;;0.50;0.50;;;;;;;;;;5060245;28;20238;-83
2023/04/12 02:09:24;;;;;;;0.50;0.50;;;;;;;;;;5060285;28;20179;-83
2023/04/12 02:11:50;;;;;;;0.50;0.50;;;;;;;;;;5059937;28;20195;-83
2023/04/12 02:14:16;;;;;;;0.67;0.67;;;;;;;;;;5058588;28;20206;-83
2023/04/12 02:16:43;;;;;;;0.60;0.60;;;;;;;;;;5059317;28;20171;-83
2023/04/12 02:19:09;;;;;;;0.70;0.70;;;;;;;;;;5059683;28;20626;-82
2023/04/12 02:21:41;;;;;;;0.60;0.60;;;;;;;;;;5059741;28;20550;-83
2023/04/12 02:24:08;;;;;;;0.50;0.50;;;;;;;;;;5060020;28;20197;-83
2023/04/12 02:26:35;;;;;;;0.50;0.50;;;;;;;;;;5060165;28;20206;-83
2023/04/12 02:29:01;;;;;;;0.50;0.50;;;;;;;;;;5059956;28;20183;-83
2023/04/12 02:31:26;;;;;;;0.60;0.60;;;;;;;;;;5059964;28;20598;-83
2023/04/12 02:33:52;;;;;;;0.60;0.60;;;;;;;;;;5060060;28;20195;-83
2023/04/12 02:36:19;;;;;;;0.60;0.60;;;;;;;;;;5059956;28;20182;-84
2023/04/12 02:38:45;;;;;;;0.60;0.60;;;;;;;;;;5062827;28;20186;-83
2023/04/12 02:41:16;;;;;;;0.50;0.50;;;;;;;;;;5076776;28;20290;-84
2023/04/12 02:43:42;;;;;;;0.53;0.53;;;;;;;;;;5075900;28;20216;-83
2023/04/12 02:46:08;;;;;;;0.60;0.60;;;;;;;;;;5076496;28;20433;-83
2023/04/12 02:48:34;;;;;;;0.67;0.67;;;;;;;;;;5076267;28;20186;-82
2023/04/12 02:51:00;;;;;;;0.70;0.70;;;;;;;;;;5076857;28;20185;-82
2023/04/12 02:53:26;;;;;;;0.60;0.60;;;;;;;;;;5076190;28;20171;-83
2023/04/12 02:55:52;;;;;;;0.60;0.60;;;;;;;;;;5076174;28;20159;-82
2023/04/12 02:58:18;;;;;;;0.70;0.70;;;;;;;;;;5076182;28;20163;-80
2023/04/12 03:00:45;;;;;;;0.70;0.70;;;;;;;;;;5076600;28;20199;-84
2023/04/12 03:03:11;;;;;;;0.60;0.60;;;;;;;;;;5075408;28;20255;-82
2023/04/12 03:05:38;;;;;;;0.70;0.70;;;;;;;;;;5062900;28;20215;-81
2023/04/12 03:08:04;;;;;;;0.70;0.70;;;;;;;;;;5058519;28;20182;-82
2023/04/12 03:10:30;;;;;;;0.70;0.70;;;;;;;;;;5057960;28;20248;-82
2023/04/12 03:12:56;;;;;;;0.63;0.63;;;;;;;;;;5057082;28;20217;-82
2023/04/12 03:15:22;;;;;;;0.60;0.60;;;;;;;;;;5058209;28;20175;-81
2023/04/12 03:17:48;;;;;;;0.70;0.70;;;;;;;;;;5058115;28;20179;-81
2023/04/12 03:20:16;;;;;;;0.60;0.60;;;;;;;;;;5058010;28;20178;-82
2023/04/12 03:22:41;;;;;;;0.70;0.70;;;;;;;;;;5058069;28;20553;-82
2023/04/12 03:25:08;;;;;;;0.67;0.67;;;;;;;;;;5057712;28;20214;-81
2023/04/12 03:27:34;;;;;;;0.60;0.60;;;;;;;;;;5057875;28;20229;-82
2023/04/12 03:30:01;;;;;;;0.70;0.70;;;;;;;;;;5058038;28;20197;-82
2023/04/12 03:32:26;;;;;;;0.60;0.60;;;;;;;;;;5057948;28;20179;-83
2023/04/12 03:34:52;;;;;;;0.60;0.60;;;;;;;;;;5057502;28;20202;-82
2023/04/12 03:37:18;;;;;;;0.60;0.60;;;;;;;;;;5063566;28;20183;-80
2023/04/12 03:39:46;;;;;;;0.70;0.70;;;;;;;;;;5075068;28;20178;-82
2023/04/12 03:42:12;;;;;;;0.60;0.60;;;;;;;;;;5074255;28;20201;-83
2023/04/12 03:44:38;;;;;;;0.70;0.70;;;;;;;;;;5056559;28;20199;-82
2023/04/12 03:47:04;;;;;;;0.63;0.63;;;;;;;;;;5057409;28;20221;-82
2023/04/12 03:49:31;;;;;;;0.60;0.60;;;;;;;;;;5060873;28;20179;-81
2023/04/12 03:51:57;;;;;;;0.67;0.67;;;;;;;;;;5061308;28;20183;-81
2023/04/12 03:54:23;;;;;;;0.70;0.70;;;;;;;;;;5061267;28;20203;-82
2023/04/12 03:56:49;;;;;;;0.67;0.67;;;;;;;;;;5062632;28;20695;-82
2023/04/12 03:59:15;;;;;;;0.63;0.63;;;;;;;;;;5060729;28;20207;-82
2023/04/12 04:01:42;;;;;;;0.80;0.80;;;;;;;;;;5061691;28;20187;-82
2023/04/12 04:04:08;;;;;;;0.60;0.60;;;;;;;;;;5062304;28;20198;-82
2023/04/12 04:06:34;;;;;;;0.70;0.70;;;;;;;;;;5068433;28;20195;-82
2023/04/12 04:09:00;;;;;;;0.57;0.57;;;;;;;;;;5075901;28;20185;-82
2023/04/12 04:11:26;;;;;;;0.70;0.70;;;;;;;;;;5075724;28;20221;-82
2023/04/12 04:13:52;;;;;;;0.70;0.70;;;;;;;;;;5075305;28;20175;-83
2023/04/12 04:16:18;;;;;;;0.80;0.80;;;;;;;;;;5061706;28;20183;-83
2023/04/12 04:18:44;;;;;;;0.60;0.60;;;;;;;;;;5060193;28;20267;-84
2023/04/12 04:21:10;;;;;;;0.70;0.70;;;;;;;;;;5060549;28;20202;-83
2023/04/12 04:23:43;;;;;;;0.60;0.60;;;;;;;;;;5061727;28;20677;-82
2023/04/12 04:26:09;;;;;;;0.60;0.60;;;;;;;;;;5063165;28;20217;-81
2023/04/12 04:28:37;;;;;;;0.57;0.57;;;;;;;;;;5063422;28;20678;-81
2023/04/12 04:31:05;;;;;;;0.60;0.60;;;;;;;;;;5064239;28;20217;-80
2023/04/12 04:33:31;;;;;;;0.80;0.80;;;;;;;;;;5063541;28;20206;-83
2023/04/12 04:35:57;;;;;;;0.70;0.70;;;;;;;;;;5064429;28;20193;-81
2023/04/12 04:38:25;;;;;;;0.70;0.70;;;;;;;;;;5063791;28;20211;-82
2023/04/12 04:40:54;;;;;;;0.60;0.60;;;;;;;;;;5063485;28;20263;-81
2023/04/12 04:43:20;;;;;;;0.70;0.70;;;;;;;;;;5062768;28;20211;-82
2023/04/12 04:45:49;;;;;;;0.60;0.60;;;;;;;;;;5063028;28;20213;-82
2023/04/12 04:48:17;;;;;;;0.67;0.67;;;;;;;;;;5063610;28;20256;-80
2023/04/12 04:50:43;;;;;;;0.60;0.60;;;;;;;;;;5063482;28;20258;-82
2023/04/12 04:53:10;;;;;;;0.60;0.60;;;;;;;;;;5063043;28;20206;-82
2023/04/12 04:55:36;;;;;;;0.60;0.60;;;;;;;;;;5064128;28;20570;-82
2023/04/12 04:58:02;;;;;;;0.70;0.70;;;;;;;;;;5066999;28;20195;-82
2023/04/12 05:00:29;;;;;;;0.70;0.70;;;;;;;;;;5064067;28;20237;-82
2023/04/12 05:02:55;;;;;;;0.60;0.60;;;;;;;;;;5063093;28;20266;-83
2023/04/12 05:05:22;;;;;;;0.60;0.60;;;;;;;;;;5063282;28;20201;-82
2023/04/12 05:07:48;;;;;;;0.60;0.60;;;;;;;;;;5062972;28;20183;-82
2023/04/12 05:10:14;;;;;;;0.77;0.77;;;;;;;;;;5062303;28;20233;-82
2023/04/12 05:12:40;;;;;;;0.70;0.70;;;;;;;;;;5060996;28;20191;-81
2023/04/12 05:15:06;;;;;;;0.70;0.70;;;;;;;;;;5060444;28;20225;-82
2023/04/12 05:17:35;;;;;;;0.60;0.60;;;;;;;;;;5050960;28;20176;-83
2023/04/12 05:20:04;;;;;;;0.63;0.63;;;;;;;;;;5041449;28;20382;-81
2023/04/12 05:22:31;;;;;;;0.70;0.70;;;;;;;;;;5039144;28;20183;-81
2023/04/12 05:24:57;;;;;;;0.70;0.70;;;;;;;;;;5040324;28;20227;-84
2023/04/12 05:27:23;;;;;;;0.60;0.60;;;;;;;;;;5040299;28;20211;-82
2023/04/12 05:29:49;;;;;;;0.73;0.73;;;;;;;;;;5041439;28;20598;-82
2023/04/12 05:32:15;;;;;;;0.70;0.70;;;;;;;;;;5041686;28;20676;-82
2023/04/12 05:34:42;;;;;;;0.60;0.60;;;;;;;;;;5044560;28;20286;-82
2023/04/12 05:37:08;;;;;;;0.70;0.70;;;;;;;;;;5044854;28;20187;-82
2023/04/12 05:39:34;;;;;;;0.60;0.60;;;;;;;;;;5041462;28;20178;-86
2023/04/12 05:42:00;;;;;;;0.60;0.60;;;;;;;;;;5039808;28;20226;-82
2023/04/12 05:44:27;;;;;;;0.70;0.70;;;;;;;;;;5039137;28;20203;-83
2023/04/12 05:46:52;;;;;;;0.60;0.60;;;;;;;;;;5039738;28;20657;-83
2023/04/12 05:49:18;;;;;;;0.60;0.60;;;;;;;;;;5040323;28;20180;-84
2023/04/12 05:51:44;;;;;;;0.70;0.70;;;;;;;;;;5040657;28;20663;-82
2023/04/12 05:54:10;;;;;;;0.60;0.60;;;;;;;;;;5039712;28;20229;-83
2023/04/12 05:56:36;;;;;;;0.70;0.70;;;;;;;;;;5039904;28;20279;-82
2023/04/12 05:59:04;;;;;;;0.60;0.60;;;;;;;;;;5039006;28;20183;-83
2023/04/12 06:01:33;;;;;;;0.60;0.60;;;;;;;;;;5039403;28;20613;-82
2023/04/12 06:04:01;;;;;;;0.60;0.60;;;;;;;;;;5039328;28;20275;-81
2023/04/12 06:06:29;;;;;;;0.67;0.67;;;;;;;;;;5038304;28;20281;-81
2023/04/12 06:08:54;;;;;;;0.70;0.70;;;;;;;;;;5039196;28;20230;-81
2023/04/12 06:11:20;;;;;;;0.60;0.60;;;;;;;;;;5038549;28;20195;-82
2023/04/12 06:13:46;;;;;;;0.60;0.60;;;;;;;;;;5040838;28;20225;-81
2023/04/12 06:16:12;;;;;;;0.60;0.60;;;;;;;;;;5052065;28;20262;-81
2023/04/12 06:18:38;;;;;;;0.60;0.60;;;;;;;;;;5055697;28;20175;-84
2023/04/12 06:21:05;;;;;;;0.60;0.60;;;;;;;;;;5050693;28;20171;-83
2023/04/12 06:23:31;;;;;;;0.60;0.60;;;;;;;;;;5053243;28;20237;-82
2023/04/12 06:25:57;;;;;;;0.70;0.70;;;;;;;;;;5057165;28;20209;-82
2023/04/12 06:28:23;;;;;;;0.70;0.70;;;;;;;;;;5055119;28;20179;-81
2023/04/12 06:30:49;;;;;;;0.70;0.70;;;;;;;;;;5055351;28;20210;-81
2023/04/12 06:33:15;;;;;;;0.60;0.60;;;;;;;;;;5055164;28;20198;-82
2023/04/12 06:35:41;;;;;;;0.70;0.70;;;;;;;;;;5052854;28;20463;-82
2023/04/12 06:38:07;;;;;;;0.60;0.60;;;;;;;;;;5053881;28;20167;-83
2023/04/12 06:40:33;;;;;;;0.70;0.70;;;;;;;;;;5056067;28;20182;-85
2023/04/12 06:42:59;;;;;;;0.60;0.60;;;;;;;;;;5057374;28;20529;-83
2023/04/12 06:45:27;;;;;;;0.70;0.70;;;;;;;;;;5057954;28;20163;-86
2023/04/12 06:47:55;;;;;;;0.60;0.60;;;;;;;;;;5057605;28;20159;-83
2023/04/12 06:50:21;;;;;;;0.70;0.70;;;;;;;;;;5056362;28;20175;-85
2023/04/12 06:52:47;;;;;;;0.60;0.60;;;;;;;;;;5050767;28;20229;-84
2023/04/12 06:55:14;;;;;;;0.70;0.70;;;;;;;;;;5074287;28;20159;-85
2023/04/12 06:57:45;;;;;;;0.60;0.60;;;;;;;;;;5076785;28;20258;-86
2023/04/12 07:00:12;;;;;;;0.67;0.67;;;;;;;;;;5076769;28;20239;-86
2023/04/12 07:02:38;;;;;;;0.70;0.70;;;;;;;;;;5075322;28;20180;-87
2023/04/12 07:05:04;;;;;;;0.60;0.60;;;;;;;;;;5077799;28;20195;-85
2023/04/12 07:07:31;;;;;;;0.60;0.60;;;;;;;;;;5077868;28;20334;-87
2023/04/12 07:09:58;;;;;;;0.60;0.60;;;;;;;;;;5077936;28;20238;-86
2023/04/12 07:12:23;;;;;;;0.60;0.60;;;;;;;;;;5077294;28;20664;-85
2023/04/12 07:14:49;;;;;;;0.60;0.60;;;;;;;;;;5070434;28;20195;-87
2023/04/12 07:17:15;;;;;;;0.63;0.63;;;;;;;;;;5057300;28;20191;-87
2023/04/12 07:19:43;;;;;;;0.60;0.60;;;;;;;;;;5057563;28;20179;-86
2023/04/12 07:22:09;;;;;;;0.60;0.60;;;;;;;;;;5051027;28;20207;-84
2023/04/12 07:24:35;;;;;;;0.70;0.70;;;;;;;;;;5043915;28;20195;-85
2023/04/12 07:27:01;;;;;;;0.60;0.60;;;;;;;;;;5059281;28;20693;-85
2023/04/12 07:29:27;;;;;;;0.70;0.70;;;;;;;;;;5076835;28;20167;-86
2023/04/12 07:31:53;;;;;;;0.63;0.63;;;;;;;;;;5076835;28;20174;-86
2023/04/12 07:34:19;;;;;;;0.60;0.60;;;;;;;;;;5061847;28;20199;-85
2023/04/12 07:36:45;;;;;;;0.60;0.60;;;;;;;;;;5057889;28;20191;-85
2023/04/12 07:39:11;;;;;;;0.60;0.60;;;;;;;;;;5057779;28;20187;-85
2023/04/12 07:41:37;;;;;;;0.57;0.57;;;;;;;;;;5056252;28;20233;-85
2023/04/12 07:44:04;;;;;;;0.70;0.70;;;;;;;;;;5054952;28;20669;-85
2023/04/12 07:46:30;;;;;;;0.60;0.60;;;;;;;;;;5055028;28;20347;-85
2023/04/12 07:48:56;;;;;;;0.63;0.63;;;;;;;;;;5055733;28;20175;-85
2023/04/12 07:51:22;;;;;;;0.60;0.60;;;;;;;;;;5057852;28;20530;-85
2023/04/12 07:53:48;;;;;;;0.60;0.60;;;;;;;;;;5057807;28;20210;-85
2023/04/12 07:56:15;;;;;;;0.60;0.60;;;;;;;;;;5058244;28;20202;-86
2023/04/12 07:58:41;;;;;;;0.60;0.60;;;;;;;;;;5058556;28;20175;-85
2023/04/12 08:01:07;;;;;;;0.70;0.70;;;;;;;;;;5057739;28;20197;-85
2023/04/12 08:03:33;;;;;;;0.60;0.60;;;;;;;;;;5038669;28;20199;-85
2023/04/12 08:05:59;;;;;;;0.50;0.50;;;;;;;;;;5036854;28;20349;-85
2023/04/12 08:08:25;;;;;;;0.60;0.60;;;;;;;;;;5035370;28;20175;-86
2023/04/12 08:10:51;;;;;;;0.60;0.60;;;;;;;;;;5036742;28;20188;-85
2023/04/12 08:13:19;;;;;;;0.57;0.57;;;;;;;;;;5041118;28;20207;-86
2023/04/12 08:15:46;;;;;;;0.67;0.67;;;;;;;;;;5054513;28;20198;-85
2023/04/12 08:18:12;;;;;;;0.60;0.60;;;;;;;;;;5054029;28;20366;-84
2023/04/12 08:20:43;;;;;;;0.60;0.60;;;;;;;;;;5050243;28;20184;-86
2023/04/12 08:23:09;;;;;;;0.50;0.50;;;;;;;;;;5042058;28;20195;-85
2023/04/12 08:25:35;;;;;;;0.60;0.60;;;;;;;;;;5045342;28;20175;-85
2023/04/12 08:28:02;;;;;;;0.60;0.60;;;;;;;;;;5056325;28;20238;-85
2023/04/12 08:30:28;;;;;;;0.60;0.60;;;;;;;;;;5051207;28;20232;-84
2023/04/12 08:32:55;;;;;;;0.50;0.50;;;;;;;;;;5036561;28;20176;-84
2023/04/12 08:35:21;;;;;;;0.50;0.50;;;;;;;;;;5036498;28;20176;-84
2023/04/12 08:37:47;;;;;;;0.60;0.60;;;;;;;;;;5035447;28;20226;-84
2023/04/12 08:40:13;;;;;;;0.60;0.60;;;;;;;;;;5037623;28;20176;-85
2023/04/12 08:42:40;;;;;;;0.60;0.60;;;;;;;;;;5038317;28;20693;-85
2023/04/12 08:45:07;;;;;;;0.63;0.63;;;;;;;;;;5037683;28;20211;-85
2023/04/12 08:47:37;;;;;;;0.60;0.60;;;;;;;;;;5038052;28;20550;-86
2023/04/12 08:50:07;;;;;;;0.60;0.60;;;;;;;;;;5035754;28;20180;-84
2023/04/12 08:52:34;;;;;;;0.60;0.60;;;;;;;;;;5035184;28;20183;-84
2023/04/12 08:55:02;;;;;;;0.60;0.60;;;;;;;;;;5047666;28;20233;-84
2023/04/12 08:57:29;;;;;;;0.60;0.60;;;;;;;;;;5055619;28;20214;-85
2023/04/12 08:59:55;;;;;;;0.50;0.50;;;;;;;;;;5037735;28;20182;-85
2023/04/12 09:02:21;;;;;;;0.50;0.50;;;;;;;;;;5054326;28;20172;-86
2023/04/12 09:04:48;;;;;;;0.60;0.60;;;;;;;;;;5037056;28;20207;-85
2023/04/12 09:07:14;;;;;;;0.50;0.50;;;;;;;;;;5035734;28;20219;-86
2023/04/12 09:09:44;;;;;;;0.53;0.53;;;;;;;;;;5053958;28;20179;-85
2023/04/12 09:12:10;;;;;;;0.53;0.53;;;;;;;;;;5040203;28;20218;-85
2023/04/12 09:14:37;;;;;;;0.50;0.50;;;;;;;;;;5042658;28;20206;-85
2023/04/12 09:17:03;;;;;;;0.60;0.60;;;;;;;;;;5045971;28;20238;-85
2023/04/12 09:19:34;;;;;;;0.57;0.57;;;;;;;;;;5057980;28;20197;-85
2023/04/12 09:22:00;;;;;;;0.50;0.50;;;;;;;;;;5061260;28;20191;-86
2023/04/12 09:24:27;;;;;;;0.50;0.50;;;;;;;;;;5055276;28;20249;-85
2023/04/12 09:27:01;;;;;;;0.60;0.60;;;;;;;;;;5054552;28;20237;-85
2023/04/12 09:29:27;;;;;;;0.60;0.60;;;;;;;;;;5061607;28;20185;-85
2023/04/12 09:31:56;;;;;;;0.60;0.60;;;;;;;;;;5058757;28;20172;-85
2023/04/12 09:34:22;;;;;;;0.60;0.60;;;;;;;;;;5047006;28;20223;-85
2023/04/12 09:36:48;;;;;;;0.50;0.50;;;;;;;;;;5049839;28;20172;-85
2023/04/12 09:39:14;;;;;;;0.70;0.70;;;;;;;;;;5054491;28;20172;-85
2023/04/12 09:41:40;;;;;;;0.60;0.60;;;;;;;;;;5044181;28;20172;-85
2023/04/12 09:44:06;;;;;;;0.70;0.70;;;;;;;;;;5054730;28;20278;-85
2023/04/12 09:46:33;;;;;;;0.63;0.63;;;;;;;;;;5048701;28;20214;-85
2023/04/12 09:48:59;;;;;;;0.60;0.60;;;;;;;;;;5055448;28;20187;-84
2023/04/12 09:51:27;;;;;;;0.60;0.60;;;;;;;;;;5045643;28;20182;-86
2023/04/12 09:53:55;;;;;;;0.70;0.70;;;;;;;;;;5043625;28;20231;-85
2023/04/12 09:56:22;;;;;;;0.60;0.60;;;;;;;;;;5061208;28;20176;-86
2023/04/12 09:58:51;;;;;;;0.60;0.60;;;;;;;;;;5061927;28;20183;-86
2023/04/12 10:01:18;;;;;;;0.63;0.63;;;;;;;;;;5047788;28;20190;-86
2023/04/12 10:03:44;;;;;;;0.53;0.53;;;;;;;;;;5042496;28;20545;-84
2023/04/12 10:06:10;;;;;;;0.50;0.50;;;;;;;;;;5060892;28;20195;-86
2023/04/12 10:08:37;;;;;;;0.50;0.50;;;;;;;;;;5061874;28;20193;-86
2023/04/12 10:11:03;;;;;;;0.50;0.50;;;;;;;;;;5049400;28;20292;-85
2023/04/12 10:13:32;;;;;;;0.60;0.60;;;;;;;;;;5057241;28;20210;-86
2023/04/12 10:15:59;;;;;;;0.57;0.57;;;;;;;;;;5042707;28;20183;-86
2023/04/12 10:18:26;;;;;;;0.50;0.50;;;;;;;;;;5041735;28;20683;-87
2023/04/12 10:20:52;;;;;;;0.60;0.60;;;;;;;;;;5055851;28;20235;-85
2023/04/12 10:23:18;;;;;;;0.50;0.50;;;;;;;;;;5054405;28;20196;-87
2023/04/12 10:25:46;;;;;;;0.50;0.50;;;;;;;;;;5066136;28;20186;-87
2023/04/12 10:28:17;;;;;;;0.50;0.50;;;;;;;;;;5051174;28;20180;-86
2023/04/12 10:30:43;;;;;;;0.40;0.40;;;;;;;;;;5053180;28;20194;-87
2023/04/12 10:33:11;;;;;;;0.40;0.40;;;;;;;;;;5063898;28;20179;-85
2023/04/12 10:35:49;;;;;;;0.50;0.50;;;;;;;;;;5055086;28;20199;-85
2023/04/12 10:38:16;;;;;;;0.40;0.40;;;;;;;;;;5070411;28;20221;-85
2023/04/12 10:41:01;;;;;;;0.50;0.50;;;;;;;;;;5056825;28;20194;-86
2023/04/12 10:43:27;;;;;;;0.50;0.50;;;;;;;;;;5056851;28;20263;-87
2023/04/12 10:45:55;;;;;;;0.40;0.40;;;;;;;;;;5057548;28;20224;-86
2023/04/12 10:48:37;;;;;;;0.30;0.30;;;;;;;;;;5057674;28;20183;-85
2023/04/12 10:51:16;;;;;;;0.40;0.40;;;;;;;;;;5056746;28;20244;-85
2023/04/12 10:53:43;;;;;;;0.40;0.40;;;;;;;;;;5053760;28;20263;-85
2023/04/12 10:56:27;;;;;;;0.40;0.40;;;;;;;;;;5054146;28;20189;-87
2023/04/12 10:58:54;;;;;;;0.37;0.37;;;;;;;;;;5054489;28;20227;-86
2023/04/12 11:01:20;;;;;;;0.40;0.40;;;;;;;;;;5052257;28;20229;-85
2023/04/12 11:04:05;;;;;;;0.50;0.50;;;;;;;;;;5053284;28;20188;-86
2023/04/12 11:06:51;;;;;;;0.47;0.47;;;;;;;;;;5053245;28;20219;-85
2023/04/12 11:09:20;;;;;;;0.40;0.40;;;;;;;;;;5053716;28;20195;-85
2023/04/12 11:11:46;;;;;;;0.40;0.40;;;;;;;;;;5054217;28;20176;-85
2023/04/12 11:14:14;;;;;;;0.40;0.40;;;;;;;;;;5054463;28;20214;-85
2023/04/12 11:17:15;;;;;;;0.50;0.50;;;;;;;;;;5057212;28;20156;-84
2023/04/12 11:19:45;;;;;;;0.50;0.50;;;;;;;;;;5035616;28;20189;-83
2023/04/12 11:22:12;;;;;;;0.30;0.30;;;;;;;;;;5048131;28;20187;-83
2023/04/12 11:24:45;;;;;;;0.40;0.40;;;;;;;;;;5047470;28;20199;-85
2023/04/12 11:27:11;;;;;;;0.40;0.40;;;;;;;;;;5047702;28;20211;-84
2023/04/12 11:29:38;;;;;;;0.40;0.40;;;;;;;;;;5043899;28;20176;-83
2023/04/12 11:32:06;;;;;;;0.40;0.40;;;;;;;;;;5047468;28;20179;-85
2023/04/12 11:34:35;;;;;;;0.50;0.50;;;;;;;;;;5052958;28;20191;-85
2023/04/12 11:37:06;;;;;;;0.40;0.40;;;;;;;;;;5054788;28;20266;-86
2023/04/12 11:39:33;;;;;;;0.43;0.43;;;;;;;;;;5045508;28;20237;-85
2023/04/12 11:42:00;;;;;;;0.50;0.50;;;;;;;;;;5058882;28;20175;-88
2023/04/12 11:44:26;;;;;;;0.40;0.40;;;;;;;;;;5049918;28;20560;-84
2023/04/12 11:46:54;;;;;;;0.40;0.40;;;;;;;;;;5051172;28;20230;-85
2023/04/12 11:49:20;;;;;;;0.50;0.50;;;;;;;;;;5062082;28;20235;-84
2023/04/12 11:51:47;;;;;;;0.50;0.50;;;;;;;;;;5047829;28;20232;-83
2023/04/12 11:54:13;;;;;;;0.50;0.50;;;;;;;;;;5056792;28;20737;-86
2023/04/12 11:56:40;;;;;;;0.50;0.50;;;;;;;;;;5054740;28;20211;-85
2023/04/12 11:59:06;;;;;;;0.40;0.40;;;;;;;;;;5051088;28;20190;-87
2023/04/12 12:01:34;;;;;;;0.40;0.40;;;;;;;;;;5045933;28;20184;-85
2023/04/12 12:04:00;;;;;;;0.40;0.40;;;;;;;;;;5059276;28;20192;-87
2023/04/12 12:06:27;;;;;;;0.40;0.40;;;;;;;;;;5053657;28;20224;-85
2023/04/12 12:08:53;;;;;;;0.40;0.40;;;;;;;;;;5052984;28;20183;-85
2023/04/12 12:11:20;;;;;;;0.50;0.50;;;;;;;;;;5061893;28;20700;-84
2023/04/12 12:13:50;;;;;;;0.50;0.50;;;;;;;;;;5046347;28;20656;-86
2023/04/12 12:16:17;;;;;;;0.40;0.40;;;;;;;;;;5053838;28;20209;-85
2023/04/12 12:18:43;;;;;;;0.40;0.40;;;;;;;;;;5056500;28;20175;-86
2023/04/12 12:21:10;;;;;;;0.40;0.40;;;;;;;;;;5063654;28;20229;-87
2023/04/12 12:23:36;;;;;;;0.50;0.50;;;;;;;;;;5055678;28;20199;-84
2023/04/12 12:26:04;;;;;;;0.57;0.57;;;;;;;;;;5067118;28;20222;-84
2023/04/12 12:28:30;;;;;;;0.50;0.50;;;;;;;;;;5063557;28;20168;-85
2023/04/12 12:30:57;;;;;;;0.50;0.50;;;;;;;;;;5064023;28;20179;-85
2023/04/12 12:33:23;;;;;;;0.33;0.33;;;;;;;;;;5045201;28;20204;-86
2023/04/12 12:35:58;;;;;;;0.30;0.30;;;;;;;;;;5058374;28;20183;-85
2023/04/12 12:38:24;;;;;;;0.40;0.40;;;;;;;;;;5049148;28;20195;-86
2023/04/12 12:40:51;;;;;;;0.40;0.40;;;;;;;;;;5048892;28;20184;-85
2023/04/12 12:43:20;;;;;;;0.47;0.47;;;;;;;;;;5058630;28;20225;-85
2023/04/12 12:45:46;;;;;;;0.40;0.40;;;;;;;;;;5066411;28;20190;-85
2023/04/12 12:48:13;;;;;;;0.40;0.40;;;;;;;;;;5065790;28;20611;-85
2023/04/12 12:50:40;;;;;;;0.30;0.30;;;;;;;;;;5054849;28;20190;-84
2023/04/12 12:53:07;;;;;;;0.37;0.37;;;;;;;;;;5059986;28;20191;-85
2023/04/12 12:55:33;;;;;;;0.50;0.50;;;;;;;;;;5048555;28;20193;-85
2023/04/12 12:57:59;;;;;;;0.40;0.40;;;;;;;;;;5061252;28;20175;-84
2023/04/12 13:00:26;;;;;;;0.40;0.40;;;;;;;;;;5056171;28;20545;-83
2023/04/12 13:02:53;;;;;;;0.40;0.40;;;;;;;;;;5053353;28;20245;-86
2023/04/12 13:05:20;;;;;;;0.40;0.40;;;;;;;;;;5061701;28;20582;-85
2023/04/12 13:07:46;;;;;;;0.40;0.40;;;;;;;;;;5049947;28;20211;-84
2023/04/12 13:10:12;;;;;;;0.50;0.50;;;;;;;;;;5066937;28;20194;-86
2023/04/12 13:12:38;;;;;;;0.40;0.40;;;;;;;;;;5050941;28;20195;-88
2023/04/12 13:15:04;;;;;;;0.50;0.50;;;;;;;;;;5054525;28;20191;-83
2023/04/12 13:17:30;;;;;;;0.50;0.50;;;;;;;;;;5042831;28;20209;-82
2023/04/12 13:19:57;;;;;;;0.43;0.43;;;;;;;;;;5053996;28;20180;-84
2023/04/12 13:22:23;;;;;;;0.50;0.50;;;;;;;;;;5048480;28;20179;-84
2023/04/12 13:24:50;;;;;;;0.50;0.50;;;;;;;;;;5046637;28;20260;-86
2023/04/12 13:27:16;;;;;;;0.40;0.40;;;;;;;;;;5053747;28;20206;-84
2023/04/12 13:29:42;;;;;;;0.50;0.50;;;;;;;;;;5054846;28;20270;-87
2023/04/12 13:32:08;;;;;;;0.43;0.43;;;;;;;;;;5056653;28;20187;-86
2023/04/12 13:34:35;;;;;;;0.50;0.50;;;;;;;;;;5048080;28;20223;-86
2023/04/12 13:37:01;;;;;;;0.50;0.50;;;;;;;;;;5052880;28;20183;-87
2023/04/12 13:39:27;;;;;;;0.50;0.50;;;;;;;;;;5058165;28;20193;-87
2023/04/12 13:41:53;;;;;;;0.40;0.40;;;;;;;;;;5059300;28;20278;-85
2023/04/12 13:44:19;;;;;;;0.60;0.60;;;;;;;;;;5060683;28;20198;-86
2023/04/12 13:46:45;;;;;;;0.40;0.40;;;;;;;;;;5058728;28;20251;-86
2023/04/12 13:49:11;;;;;;;0.40;0.40;;;;;;;;;;5046270;28;20184;-87
2023/04/12 13:51:37;;;;;;;0.30;0.30;;;;;;;;;;5056411;28;20189;-86
2023/04/12 13:54:03;;;;;;;0.40;0.40;;;;;;;;;;5048124;28;20623;-87
2023/04/12 13:56:29;;;;;;;0.40;0.40;;;;;;;;;;5058825;28;20183;-86
2023/04/12 13:58:57;;;;;;;0.43;0.43;;;;;;;;;;5053108;28;20180;-87
2023/04/12 14:01:24;;;;;;;0.40;0.40;;;;;;;;;;5047186;28;20187;-87
2023/04/12 14:03:50;;;;;;;0.50;0.50;;;;;;;;;;5049154;28;20569;-86
2023/04/12 14:06:16;;;;;;;0.50;0.50;;;;;;;;;;5047947;28;20229;-85
2023/04/12 14:08:42;;;;;;;0.40;0.40;;;;;;;;;;5055181;28;20738;-86
2023/04/12 14:11:08;;;;;;;0.50;0.50;;;;;;;;;;5041565;28;20179;-82
2023/04/12 14:13:34;;;;;;;0.40;0.40;;;;;;;;;;5045765;28;20540;-82
2023/04/12 14:16:00;;;;;;;0.50;0.50;;;;;;;;;;5060405;28;20180;-83
2023/04/12 14:18:26;;;;;;;0.50;0.50;;;;;;;;;;5063820;28;20199;-79
2023/04/12 14:20:53;;;;;;;0.40;0.40;;;;;;;;;;5064120;28;20180;-82
2023/04/12 14:23:20;;;;;;;0.40;0.40;;;;;;;;;;5066062;28;20199;-82
2023/04/12 14:25:46;;;;;;;0.40;0.40;;;;;;;;;;5066004;28;20263;-83
2023/04/12 14:28:16;;;;;;;0.47;0.47;;;;;;;;;;5067430;28;20579;-83
2023/04/12 14:30:42;;;;;;;0.50;0.50;;;;;;;;;;5066329;28;20183;-82
2023/04/12 14:33:08;;;;;;;0.40;0.40;;;;;;;;;;5070411;28;20199;-84
2023/04/12 14:35:34;;;;;;;0.40;0.40;;;;;;;;;;5068182;28;20738;-84
2023/04/12 14:38:01;;;;;;;0.40;0.40;;;;;;;;;;5057094;28;20275;-83
2023/04/12 14:40:27;;;;;;;0.40;0.40;;;;;;;;;;5059366;28;20183;-84
2023/04/12 14:42:53;;;;;;;0.40;0.40;;;;;;;;;;5045143;28;20211;-84